KCUB/CUB METAR and TAF weather

Enter ICAO airport designator
Station Type Date Time Source
KCUB METAR 2019/10/21 22:53 UTC NOAA

KCUB 212253Z AUTO 00000KT 10SM CLR 23/17 A3000 RMK AO2 SLP155 T02330172


Station Type Date Time Source
KCUB Decoded METAR 2019/10/21 22:53 UTC NOAA

OWENS DOWNTOWN AIRPORT, SC, United States (KCUB) 33-58N 081-00W 56M
Oct 21, 2019 - 06:53 PM EDT / 2019.10.21 2253 UTC
Wind: Calm:0
Visibility: 10 mile(s):0
Sky conditions: clear
Temperature: 73.9 F (23.3 C)
Dew Point: 63.0 F (17.2 C)
Relative Humidity: 68%
Pressure (altimeter): 30 in. Hg (1015 hPa)
ob: KCUB 212253Z AUTO 00000KT 10SM CLR 23/17 A3000 RMK AO2 SLP155 T02330172
cycle: 23

Station Type Date Time Source
KCUB TAF 2019/10/21 21:12 UTC NOAA

TAF
AMD KCUB 212109Z 2121/2218 12008KT P6SM BKN035 BKN250
FM220600 12005KT 4SM -SHRA BR OVC008 WS015/16025KT
FM220900 13005KT 2SM RA BR OVC004 WS015/18025KT
FM221300 21010KT P6SM VCSH BKN008
FM221600 26012G22KT P6SM BKN040

Example: see airport list